createdAt,value
2022-11-30T00:00:37.536Z,999.95
2022-11-30T00:01:37.428Z,999.97
2022-11-30T00:02:37.533Z,999.94
2022-11-30T00:03:37.346Z,1000.00
2022-11-30T00:04:37.283Z,999.93
2022-11-30T00:05:37.231Z,999.96
2022-11-30T00:06:37.152Z,999.96
2022-11-30T00:07:37.098Z,999.93
2022-11-30T00:08:37.027Z,999.95
2022-11-30T00:09:36.968Z,999.92
2022-11-30T00:10:36.905Z,999.94
2022-11-30T00:11:36.888Z,999.97
2022-11-30T00:12:36.774Z,999.95
2022-11-30T00:13:36.683Z,999.94
2022-11-30T00:14:36.681Z,999.93
2022-11-30T00:15:36.618Z,999.96
2022-11-30T00:16:36.564Z,999.94
2022-11-30T00:17:36.503Z,999.98
2022-11-30T00:18:36.419Z,999.98
2022-11-30T00:19:36.301Z,999.97
2022-11-30T00:20:36.265Z,999.98
2022-11-30T00:21:36.252Z,999.95
2022-11-30T00:22:36.135Z,999.94
2022-11-30T00:23:36.085Z,999.98
2022-11-30T00:24:36.001Z,999.99
2022-11-30T00:25:35.930Z,999.96
2022-11-30T00:26:35.854Z,999.92
2022-11-30T00:27:35.857Z,999.94
2022-11-30T00:28:35.767Z,999.97
2022-11-30T00:29:35.675Z,999.95
2022-11-30T00:30:35.659Z,999.93
2022-11-30T00:31:35.560Z,999.91
2022-11-30T00:32:35.470Z,999.90
2022-11-30T00:33:35.435Z,999.87
2022-11-30T00:34:35.344Z,999.92
2022-11-30T00:35:35.322Z,999.85
2022-11-30T00:36:35.309Z,999.88
2022-11-30T00:37:35.172Z,999.87
2022-11-30T00:38:35.129Z,999.89
2022-11-30T00:39:35.719Z,999.92
2022-11-30T00:40:34.996Z,999.92
2022-11-30T00:41:34.969Z,999.94
2022-11-30T00:42:34.893Z,999.95
2022-11-30T00:43:34.768Z,999.96
2022-11-30T00:44:34.729Z,999.95
2022-11-30T00:45:34.688Z,999.98
2022-11-30T00:46:34.637Z,999.97
2022-11-30T00:48:43.796Z,999.98
2022-11-30T00:49:44.704Z,1000.04
2022-11-30T00:50:44.620Z,999.97
2022-11-30T00:51:44.603Z,1000.02
2022-11-30T00:52:44.514Z,1000.01
2022-11-30T00:53:44.470Z,999.98
2022-11-30T00:54:44.646Z,999.95
2022-11-30T00:55:44.303Z,999.93
2022-11-30T00:56:44.243Z,999.92
2022-11-30T00:57:44.183Z,999.95
2022-11-30T00:58:44.132Z,999.89
2022-11-30T01:00:05.050Z,999.91
2022-11-30T01:00:43.979Z,999.93
2022-11-30T01:01:43.939Z,999.92
2022-11-30T01:02:43.932Z,999.90
2022-11-30T01:03:43.812Z,999.91
2022-11-30T01:04:43.895Z,999.88
2022-11-30T01:08:02.129Z,999.90
2022-11-30T01:09:03.053Z,999.88
2022-11-30T01:10:03.023Z,999.88
2022-11-30T01:11:02.933Z,999.90
2022-11-30T01:12:02.847Z,999.88
2022-11-30T01:13:02.818Z,999.89
2022-11-30T01:14:02.773Z,999.90
2022-11-30T01:15:02.649Z,999.93
2022-11-30T01:16:02.634Z,999.90
2022-11-30T01:17:02.521Z,999.94
2022-11-30T01:18:02.514Z,999.97
2022-11-30T01:19:02.443Z,999.95
2022-11-30T01:20:02.357Z,1000.00
2022-11-30T01:21:02.292Z,999.98
2022-11-30T01:22:02.225Z,999.99
2022-11-30T01:23:02.163Z,1000.01
2022-11-30T01:24:02.097Z,999.98
2022-11-30T01:25:02.083Z,1000.00
2022-11-30T01:26:01.971Z,999.96
2022-11-30T01:27:01.899Z,999.98
2022-11-30T01:28:01.841Z,999.94
2022-11-30T01:29:01.775Z,999.97
2022-11-30T01:30:01.722Z,999.99
2022-11-30T01:31:01.728Z,999.99
2022-11-30T01:32:01.563Z,1000.01
2022-11-30T01:33:01.535Z,999.99
2022-11-30T01:34:01.457Z,1000.00
2022-11-30T01:35:01.394Z,1000.00
2022-11-30T01:36:01.307Z,1000.02
2022-11-30T01:37:01.254Z,1000.03
2022-11-30T01:38:01.180Z,999.99
2022-11-30T01:39:01.112Z,1000.02
2022-11-30T01:40:01.085Z,1000.04
2022-11-30T01:41:01.008Z,1000.02
2022-11-30T01:42:00.960Z,1000.04
2022-11-30T01:43:00.919Z,1000.00
2022-11-30T01:44:00.790Z,1000.03
2022-11-30T01:45:00.781Z,1000.01
2022-11-30T01:46:00.823Z,1000.00
2022-11-30T01:47:00.601Z,1000.01
2022-11-30T01:48:00.565Z,999.97
2022-11-30T01:49:00.488Z,999.98
2022-11-30T01:50:00.417Z,1000.01
2022-11-30T01:51:00.423Z,999.98
2022-11-30T01:52:00.331Z,1000.00
2022-11-30T01:53:00.215Z,1000.00
2022-11-30T01:54:00.170Z,999.96
2022-11-30T01:55:00.127Z,1000.01
2022-11-30T01:56:00.019Z,1000.00
2022-11-30T01:56:59.985Z,999.96
2022-11-30T01:57:59.949Z,999.96
2022-11-30T01:58:59.833Z,999.90
2022-11-30T01:59:59.820Z,999.92
2022-11-30T02:01:00.114Z,999.92
2022-11-30T02:01:59.672Z,999.92
2022-11-30T02:02:59.647Z,999.94
2022-11-30T02:03:59.571Z,999.96
2022-11-30T02:04:59.483Z,999.95
2022-11-30T02:05:59.408Z,999.98
2022-11-30T02:06:59.397Z,999.96
2022-11-30T02:07:59.422Z,1000.01
2022-11-30T02:08:59.228Z,999.96
2022-11-30T02:09:59.160Z,999.96
2022-11-30T02:10:59.084Z,999.99
2022-11-30T02:11:58.999Z,999.92
2022-11-30T02:12:58.948Z,999.94
2022-11-30T02:13:58.874Z,999.97
2022-11-30T02:14:58.834Z,999.92
2022-11-30T02:15:58.847Z,999.93
2022-11-30T02:16:58.704Z,999.93
2022-11-30T02:17:58.665Z,999.93
2022-11-30T02:18:58.594Z,999.93
2022-11-30T02:19:58.513Z,999.94
2022-11-30T02:20:59.521Z,999.90
2022-11-30T02:21:58.390Z,999.86
2022-11-30T02:22:58.316Z,999.87
2022-11-30T02:23:58.277Z,999.85
2022-11-30T02:24:58.181Z,999.87
2022-11-30T02:25:58.106Z,999.87
2022-11-30T02:26:58.085Z,999.85
2022-11-30T02:27:58.002Z,999.87
2022-11-30T02:28:57.932Z,999.85
2022-11-30T02:29:57.907Z,999.85
2022-11-30T02:30:57.841Z,999.85
2022-11-30T02:31:57.765Z,999.83
2022-11-30T02:32:57.706Z,999.86
2022-11-30T02:33:57.618Z,999.86
2022-11-30T02:34:57.550Z,999.88
2022-11-30T02:35:57.486Z,999.90
2022-11-30T02:36:57.406Z,999.91
2022-11-30T02:37:57.330Z,999.90
2022-11-30T02:38:57.292Z,999.92
2022-11-30T02:39:57.229Z,999.91
2022-11-30T02:40:57.163Z,999.90
2022-11-30T02:41:57.102Z,999.92
2022-11-30T02:42:57.355Z,999.86
2022-11-30T02:43:56.969Z,999.91
2022-11-30T02:44:56.942Z,999.90
2022-11-30T02:45:56.927Z,999.91
2022-11-30T02:46:56.803Z,999.89
2022-11-30T02:47:56.691Z,999.93
2022-11-30T02:48:56.665Z,999.91
2022-11-30T02:49:56.587Z,999.93
2022-11-30T02:50:56.555Z,999.92
2022-11-30T02:51:56.435Z,999.97
2022-11-30T02:52:56.364Z,999.96
2022-11-30T02:53:56.331Z,999.95
2022-11-30T02:55:03.517Z,999.96
2022-11-30T02:55:56.198Z,999.99
2022-11-30T02:56:56.162Z,999.96
2022-11-30T02:57:56.111Z,999.94
2022-11-30T02:58:56.008Z,999.94
2022-11-30T02:59:55.945Z,999.98
2022-11-30T03:00:55.929Z,999.93
2022-11-30T03:01:55.873Z,999.92
2022-11-30T03:02:55.793Z,999.91
2022-11-30T03:03:55.691Z,999.95
2022-11-30T03:04:55.597Z,999.92
2022-11-30T03:05:55.590Z,999.97
2022-11-30T03:06:55.757Z,999.96
2022-11-30T03:07:55.486Z,999.99
2022-11-30T03:08:55.370Z,999.98
2022-11-30T03:09:55.321Z,999.98
2022-11-30T03:10:55.252Z,999.98
2022-11-30T03:11:55.151Z,999.98
2022-11-30T03:12:57.526Z,1000.00
2022-11-30T03:13:55.078Z,1000.04
2022-11-30T03:14:54.984Z,1000.06
2022-11-30T03:15:55.033Z,1000.05
2022-11-30T03:16:54.836Z,1000.05
2022-11-30T03:17:54.819Z,1000.04
2022-11-30T03:18:54.769Z,1000.06
2022-11-30T03:19:54.666Z,1000.07
2022-11-30T03:20:54.573Z,1000.07
2022-11-30T03:21:54.568Z,1000.09
2022-11-30T03:22:54.504Z,1000.09
2022-11-30T03:23:54.405Z,1000.10
2022-11-30T03:24:54.360Z,1000.09
2022-11-30T03:25:54.309Z,1000.05
2022-11-30T03:26:54.214Z,1000.06
2022-11-30T03:27:54.148Z,1000.06
2022-11-30T03:28:54.087Z,1000.10
2022-11-30T03:29:54.036Z,1000.08
2022-11-30T03:30:54.066Z,1000.08
2022-11-30T03:31:53.876Z,1000.09
2022-11-30T03:32:53.803Z,1000.07
2022-11-30T03:33:53.742Z,1000.08
2022-11-30T03:34:54.339Z,1000.06
2022-11-30T03:35:53.665Z,1000.09
2022-11-30T03:36:53.593Z,1000.05
2022-11-30T03:37:53.508Z,1000.08
2022-11-30T03:38:53.450Z,1000.08
2022-11-30T03:39:57.907Z,1000.04
2022-11-30T03:40:53.324Z,1000.08
2022-11-30T03:41:53.288Z,1000.08
2022-11-30T03:42:53.203Z,1000.08
2022-11-30T03:43:53.127Z,1000.11
2022-11-30T03:44:53.094Z,1000.07
2022-11-30T03:45:53.003Z,1000.11
2022-11-30T03:46:53.037Z,1000.14
2022-11-30T03:47:52.873Z,1000.14
2022-11-30T03:51:11.360Z,1000.18
2022-11-30T03:52:12.199Z,1000.20
2022-11-30T03:53:12.133Z,1000.17
2022-11-30T03:54:12.121Z,1000.16
2022-11-30T03:55:12.010Z,1000.19
2022-11-30T03:56:12.021Z,1000.16
2022-11-30T03:57:11.904Z,1000.16
2022-11-30T03:58:11.841Z,1000.16
2022-11-30T03:59:11.779Z,1000.20
2022-11-30T04:00:11.685Z,1000.15
2022-11-30T04:01:11.714Z,1000.19
2022-11-30T04:02:11.630Z,1000.17
2022-11-30T04:03:11.594Z,1000.17
2022-11-30T04:04:11.466Z,1000.21
2022-11-30T04:05:11.377Z,1000.22
2022-11-30T04:06:11.358Z,1000.23
2022-11-30T04:07:11.264Z,1000.23
2022-11-30T04:08:11.525Z,1000.24
2022-11-30T04:09:11.116Z,1000.19
2022-11-30T04:10:11.075Z,1000.22
2022-11-30T04:11:11.059Z,1000.21
2022-11-30T04:12:10.920Z,1000.21
2022-11-30T04:13:10.886Z,1000.20
2022-11-30T04:14:10.834Z,1000.19
2022-11-30T04:15:10.757Z,1000.22
2022-11-30T04:16:10.832Z,1000.18
2022-11-30T04:17:10.629Z,1000.23
2022-11-30T04:18:10.591Z,1000.19
2022-11-30T04:19:10.476Z,1000.25
2022-11-30T04:20:10.457Z,1000.26
2022-11-30T04:21:10.374Z,1000.21
2022-11-30T04:22:10.307Z,1000.24
2022-11-30T04:23:10.219Z,1000.26
2022-11-30T04:24:10.208Z,1000.25
2022-11-30T04:25:10.108Z,1000.23
2022-11-30T04:26:31.068Z,1000.25
2022-11-30T04:27:09.992Z,1000.25
2022-11-30T04:28:09.928Z,1000.23
2022-11-30T04:29:09.892Z,1000.20
2022-11-30T04:30:09.798Z,1000.27
2022-11-30T04:31:09.756Z,1000.20
2022-11-30T04:32:09.710Z,1000.23
2022-11-30T04:33:09.609Z,1000.26
2022-11-30T04:34:09.581Z,1000.22
2022-11-30T04:35:09.508Z,1000.25
2022-11-30T04:36:09.440Z,1000.26
2022-11-30T04:37:09.351Z,1000.27
2022-11-30T04:38:09.571Z,1000.25
2022-11-30T04:39:09.232Z,1000.26
2022-11-30T04:40:09.161Z,1000.27
2022-11-30T04:41:09.073Z,1000.24
2022-11-30T04:42:09.041Z,1000.26
2022-11-30T04:43:08.977Z,1000.24
2022-11-30T04:44:09.257Z,1000.22
2022-11-30T04:45:08.840Z,1000.20
2022-11-30T04:46:08.835Z,1000.22
2022-11-30T04:47:08.742Z,1000.24
2022-11-30T04:48:08.627Z,1000.22
2022-11-30T04:49:08.585Z,1000.21
2022-11-30T04:50:08.540Z,1000.24
2022-11-30T04:51:08.474Z,1000.24
2022-11-30T04:52:08.422Z,1000.22
2022-11-30T04:53:08.368Z,1000.25
2022-11-30T04:54:08.296Z,1000.27
2022-11-30T04:55:08.182Z,1000.26
2022-11-30T04:56:08.179Z,1000.27
2022-11-30T04:57:08.104Z,1000.27
2022-11-30T04:58:07.943Z,1000.29
2022-11-30T04:59:07.929Z,1000.30
2022-11-30T05:00:07.916Z,1000.32
2022-11-30T05:01:07.828Z,1000.36
2022-11-30T05:02:07.808Z,1000.31
2022-11-30T05:03:07.669Z,1000.32
2022-11-30T05:04:07.664Z,1000.29
2022-11-30T05:05:07.593Z,1000.30
2022-11-30T05:06:07.536Z,1000.34
2022-11-30T05:07:07.437Z,1000.33
2022-11-30T05:08:07.429Z,1000.33
2022-11-30T05:09:07.308Z,1000.32
2022-11-30T05:10:07.249Z,1000.31
2022-11-30T05:11:07.183Z,1000.32
2022-11-30T05:12:07.116Z,1000.31
2022-11-30T05:13:07.055Z,1000.32
2022-11-30T05:14:07.311Z,1000.33
2022-11-30T05:15:06.930Z,1000.32
2022-11-30T05:16:06.878Z,1000.33
2022-11-30T05:17:06.774Z,1000.31
2022-11-30T05:18:06.741Z,1000.37
2022-11-30T05:19:06.675Z,1000.35
2022-11-30T05:22:25.286Z,1000.34
2022-11-30T05:23:26.022Z,1000.39
2022-11-30T05:24:25.931Z,1000.36
2022-11-30T05:25:25.837Z,1000.36
2022-11-30T05:26:25.877Z,1000.39
2022-11-30T05:27:25.759Z,1000.38
2022-11-30T05:28:25.698Z,1000.41
2022-11-30T05:29:25.592Z,1000.42
2022-11-30T05:30:25.522Z,1000.41
2022-11-30T05:31:25.498Z,1000.44
2022-11-30T05:32:25.391Z,1000.40
2022-11-30T05:33:25.352Z,1000.45
2022-11-30T05:34:25.292Z,1000.45
2022-11-30T05:35:25.203Z,1000.47
2022-11-30T05:36:25.139Z,1000.48
2022-11-30T05:37:25.107Z,1000.47
2022-11-30T05:38:25.037Z,1000.48
2022-11-30T05:39:32.460Z,1000.50
2022-11-30T05:40:24.933Z,1000.44
2022-11-30T05:41:24.862Z,1000.44
2022-11-30T05:42:24.794Z,1000.48
2022-11-30T05:43:24.752Z,1000.44
2022-11-30T05:44:24.680Z,1000.45
2022-11-30T05:45:24.604Z,1000.47
2022-11-30T05:46:24.603Z,1000.47
2022-11-30T05:47:24.492Z,1000.49
2022-11-30T05:48:24.398Z,1000.46
2022-11-30T05:49:24.371Z,1000.47
2022-11-30T05:50:24.275Z,1000.47
2022-11-30T05:51:24.216Z,1000.44
2022-11-30T05:52:24.118Z,1000.43
2022-11-30T05:53:24.074Z,1000.44
2022-11-30T05:54:24.013Z,1000.48
2022-11-30T05:55:23.952Z,1000.48
2022-11-30T05:56:23.910Z,1000.46
2022-11-30T06:02:00.751Z,1000.54
2022-11-30T06:03:01.788Z,1000.59
2022-11-30T06:04:05.973Z,1000.60
2022-11-30T06:05:01.546Z,1000.58
2022-11-30T06:06:01.423Z,1000.58
2022-11-30T06:07:01.364Z,1000.61
2022-11-30T06:08:01.353Z,1000.60
2022-11-30T06:09:01.237Z,1000.62
2022-11-30T06:10:01.160Z,1000.60
2022-11-30T06:11:01.126Z,1000.58
2022-11-30T06:12:01.092Z,1000.63
2022-11-30T06:13:01.028Z,1000.62
2022-11-30T06:14:00.912Z,1000.63
2022-11-30T06:15:00.846Z,1000.68
2022-11-30T06:16:00.808Z,1000.68
2022-11-30T06:17:00.700Z,1000.63
2022-11-30T06:18:00.702Z,1000.65
2022-11-30T06:21:24.169Z,1000.65
2022-11-30T06:22:19.985Z,1000.67
2022-11-30T06:23:19.955Z,1000.65
2022-11-30T06:24:19.892Z,1000.64
2022-11-30T06:25:19.777Z,1000.68
2022-11-30T06:26:20.039Z,1000.68
2022-11-30T06:27:19.703Z,1000.67
2022-11-30T06:28:20.471Z,1000.68
2022-11-30T06:29:19.614Z,1000.69
2022-11-30T06:30:19.477Z,1000.71
2022-11-30T06:31:19.470Z,1000.73
2022-11-30T06:32:19.312Z,1000.68
2022-11-30T06:33:19.236Z,1000.71
2022-11-30T06:34:19.162Z,1000.72
2022-11-30T06:35:19.090Z,1000.75
2022-11-30T06:36:19.024Z,1000.76
2022-11-30T06:37:19.037Z,1000.78
2022-11-30T06:38:18.931Z,1000.77
2022-11-30T06:39:36.531Z,1000.82
2022-11-30T06:40:18.794Z,1000.81
2022-11-30T06:41:18.735Z,1000.82
2022-11-30T06:42:18.668Z,1000.84
2022-11-30T06:43:18.597Z,1000.84
2022-11-30T06:44:18.568Z,1000.81
2022-11-30T06:45:18.485Z,1000.91
2022-11-30T06:46:18.582Z,1000.89
2022-11-30T06:47:18.348Z,1000.83
2022-11-30T06:48:18.320Z,1000.88
2022-11-30T06:49:18.274Z,1000.85
2022-11-30T06:50:18.220Z,1000.86
2022-11-30T06:51:18.111Z,1000.87
2022-11-30T06:52:18.011Z,1000.84
2022-11-30T06:53:17.935Z,1000.85
2022-11-30T06:54:17.870Z,1000.88
2022-11-30T06:55:17.836Z,1000.88
2022-11-30T06:58:36.188Z,1000.95
2022-11-30T06:59:37.109Z,1000.90
2022-11-30T07:00:37.095Z,1000.89
2022-11-30T07:01:37.019Z,1000.97
2022-11-30T07:02:36.943Z,1000.94
2022-11-30T07:03:36.890Z,1000.95
2022-11-30T07:04:36.798Z,1000.94
2022-11-30T07:05:36.722Z,1000.93
2022-11-30T07:06:36.914Z,1000.94
2022-11-30T07:07:36.815Z,1000.94
2022-11-30T07:08:36.534Z,1000.94
2022-11-30T07:09:38.677Z,1000.96
2022-11-30T07:10:36.421Z,1000.99
2022-11-30T07:11:36.713Z,1000.97
2022-11-30T07:12:36.512Z,1001.01
2022-11-30T07:13:36.187Z,1000.97
2022-11-30T07:14:36.148Z,1000.99
2022-11-30T07:15:58.284Z,1001.05
2022-11-30T07:16:36.080Z,1001.04
2022-11-30T07:17:35.928Z,1001.05
2022-11-30T07:18:35.921Z,1001.04
2022-11-30T07:19:35.855Z,1001.04
2022-11-30T07:20:35.748Z,1001.07
2022-11-30T07:21:35.731Z,1001.04
2022-11-30T07:22:35.661Z,1001.08
2022-11-30T07:23:35.578Z,1001.08
2022-11-30T07:24:35.512Z,1001.08
2022-11-30T07:25:35.423Z,1001.06
2022-11-30T07:26:35.402Z,1001.14
2022-11-30T07:27:35.337Z,1001.12
2022-11-30T07:28:35.284Z,1001.11
2022-11-30T07:29:35.190Z,1001.11
2022-11-30T07:30:35.102Z,1001.14
2022-11-30T07:31:35.182Z,1001.12
2022-11-30T07:32:35.036Z,1001.13
2022-11-30T07:33:34.951Z,1001.14
2022-11-30T07:34:34.890Z,1001.14
2022-11-30T07:35:34.841Z,1001.15
2022-11-30T07:36:34.798Z,1001.15
2022-11-30T07:37:34.678Z,1001.12
2022-11-30T07:38:34.614Z,1001.14
2022-11-30T07:39:34.578Z,1001.14
2022-11-30T07:40:34.538Z,1001.15
2022-11-30T07:41:34.457Z,1001.15
2022-11-30T07:42:34.415Z,1001.13
2022-11-30T07:43:34.338Z,1001.19
2022-11-30T07:44:35.100Z,1001.17
2022-11-30T07:45:36.621Z,1001.16
2022-11-30T07:46:35.202Z,1001.15
2022-11-30T07:47:35.083Z,1001.18
2022-11-30T07:48:33.988Z,1001.14
2022-11-30T07:49:33.943Z,1001.15
2022-11-30T07:50:33.880Z,1001.19
2022-11-30T07:51:33.866Z,1001.21
2022-11-30T07:52:34.656Z,1001.19
2022-11-30T07:53:33.663Z,1001.20
2022-11-30T07:54:33.598Z,1001.18
2022-11-30T07:55:34.160Z,1001.16
2022-11-30T07:56:33.466Z,1001.21
2022-11-30T07:57:33.452Z,1001.17
2022-11-30T07:58:33.368Z,1001.22
2022-11-30T07:59:33.458Z,1001.17
2022-11-30T08:00:33.184Z,1001.20
2022-11-30T08:01:33.311Z,1001.20
2022-11-30T08:02:33.132Z,1001.19
2022-11-30T08:03:36.851Z,1001.20
2022-11-30T08:04:34.262Z,1001.26
2022-11-30T08:05:33.645Z,1001.28
2022-11-30T08:06:32.893Z,1001.29
2022-11-30T08:07:32.765Z,1001.23
2022-11-30T08:08:32.788Z,1001.23
2022-11-30T08:09:35.050Z,1001.30
2022-11-30T08:10:32.547Z,1001.30
2022-11-30T08:11:32.510Z,1001.29
2022-11-30T08:12:32.446Z,1001.29
2022-11-30T08:13:32.378Z,1001.31
2022-11-30T08:14:41.218Z,1001.29
2022-11-30T08:15:33.535Z,1001.30
2022-11-30T08:16:32.247Z,1001.31
2022-11-30T08:17:32.151Z,1001.26
2022-11-30T08:18:32.542Z,1001.27
2022-11-30T08:19:32.001Z,1001.30
2022-11-30T08:20:32.133Z,1001.28
2022-11-30T08:21:31.901Z,1001.29
2022-11-30T08:22:31.805Z,1001.27
2022-11-30T08:23:31.745Z,1001.28
2022-11-30T08:24:31.758Z,1001.26
2022-11-30T08:25:31.586Z,1001.30
2022-11-30T08:26:31.582Z,1001.32
2022-11-30T08:27:31.819Z,1001.26
2022-11-30T08:28:31.458Z,1001.30
2022-11-30T08:29:31.334Z,1001.29
2022-11-30T08:30:32.713Z,1001.28
2022-11-30T08:31:31.311Z,1001.29
2022-11-30T08:32:31.139Z,1001.31
2022-11-30T08:33:31.131Z,1001.27
2022-11-30T08:34:31.048Z,1001.30
2022-11-30T08:35:31.022Z,1001.26
2022-11-30T08:36:30.940Z,1001.28
2022-11-30T08:37:30.874Z,1001.28
2022-11-30T08:38:30.764Z,1001.30
2022-11-30T08:39:30.718Z,1001.26
2022-11-30T08:40:30.687Z,1001.29
2022-11-30T08:41:30.595Z,1001.27
2022-11-30T08:42:30.528Z,1001.33
2022-11-30T08:43:30.475Z,1001.28
2022-11-30T08:44:30.428Z,1001.25
2022-11-30T08:45:32.784Z,1001.32
2022-11-30T08:47:30.297Z,1001.35
2022-11-30T08:48:30.120Z,1001.31
2022-11-30T08:49:30.111Z,1001.31
2022-11-30T08:50:30.017Z,1001.31
2022-11-30T08:51:47.478Z,1001.31
2022-11-30T08:52:29.941Z,1001.35
2022-11-30T08:53:29.832Z,1001.36
2022-11-30T08:54:29.791Z,1001.34
2022-11-30T08:55:29.727Z,1001.34
2022-11-30T08:56:29.664Z,1001.33
2022-11-30T08:57:29.567Z,1001.39
2022-11-30T08:58:29.491Z,1001.41
2022-11-30T08:59:29.484Z,1001.36
2022-11-30T09:00:29.383Z,1001.38
2022-11-30T09:01:31.497Z,1001.43
2022-11-30T09:02:29.282Z,1001.38
2022-11-30T09:03:29.201Z,1001.43
2022-11-30T09:04:29.163Z,1001.50
2022-11-30T09:05:29.119Z,1001.45
2022-11-30T09:06:29.036Z,1001.52
2022-11-30T09:07:29.025Z,1001.51
2022-11-30T09:08:28.874Z,1001.51
2022-11-30T09:09:28.804Z,1001.50
2022-11-30T09:10:28.744Z,1001.52
2022-11-30T09:11:28.675Z,1001.54
2022-11-30T09:12:28.605Z,1001.54
2022-11-30T09:13:28.564Z,1001.54
2022-11-30T09:14:28.488Z,1001.53
2022-11-30T09:15:28.463Z,1001.54
2022-11-30T09:16:28.385Z,1001.56
2022-11-30T09:17:28.303Z,1001.55
2022-11-30T09:18:28.232Z,1001.56
2022-11-30T09:19:28.197Z,1001.57
2022-11-30T09:20:28.111Z,1001.57
2022-11-30T09:21:30.507Z,1001.60
2022-11-30T09:22:27.976Z,1001.60
2022-11-30T09:23:27.924Z,1001.58
2022-11-30T09:24:27.846Z,1001.60
2022-11-30T09:25:27.779Z,1001.61
2022-11-30T09:26:27.696Z,1001.62
2022-11-30T09:27:27.848Z,1001.62
2022-11-30T09:28:27.595Z,1001.61
2022-11-30T09:29:27.525Z,1001.61
2022-11-30T09:30:27.540Z,1001.64
2022-11-30T09:31:27.472Z,1001.66
2022-11-30T09:32:27.379Z,1001.61
2022-11-30T09:33:27.277Z,1001.60
2022-11-30T09:34:27.207Z,1001.60
2022-11-30T09:35:27.157Z,1001.59
2022-11-30T09:36:27.100Z,1001.61
2022-11-30T09:37:27.018Z,1001.64
2022-11-30T09:38:27.008Z,1001.66
2022-11-30T09:39:26.911Z,1001.64
2022-11-30T09:40:29.878Z,1001.67
2022-11-30T09:41:26.826Z,1001.66
2022-11-30T09:42:26.724Z,1001.65
2022-11-30T09:43:26.650Z,1001.69
2022-11-30T09:44:26.545Z,1001.67
2022-11-30T09:45:26.504Z,1001.66
2022-11-30T09:46:26.492Z,1001.63
2022-11-30T09:47:27.537Z,1001.69
2022-11-30T09:48:26.344Z,1001.75
2022-11-30T09:49:26.315Z,1001.73
2022-11-30T09:50:26.204Z,1001.67
2022-11-30T09:51:26.178Z,1001.72
2022-11-30T09:52:26.064Z,1001.76
2022-11-30T09:53:29.411Z,1001.64
2022-11-30T09:54:25.912Z,1001.69
2022-11-30T09:55:25.868Z,1001.70
2022-11-30T09:56:25.823Z,1001.69
2022-11-30T09:59:44.086Z,1001.68
2022-11-30T10:00:44.990Z,1001.71
2022-11-30T10:01:48.764Z,1001.67
2022-11-30T10:02:45.045Z,1001.67
2022-11-30T10:03:44.859Z,1001.70
2022-11-30T10:04:45.291Z,1001.69
2022-11-30T10:05:44.697Z,1001.67
2022-11-30T10:06:44.631Z,1001.69
2022-11-30T10:07:44.643Z,1001.71
2022-11-30T10:08:50.210Z,1001.72
2022-11-30T10:09:49.469Z,1001.69
2022-11-30T10:10:44.367Z,1001.67
2022-11-30T10:11:44.290Z,1001.67
2022-11-30T10:12:44.272Z,1001.72
2022-11-30T10:13:44.186Z,1001.71
2022-11-30T10:14:44.218Z,1001.70
2022-11-30T10:15:44.241Z,1001.76
2022-11-30T10:16:44.011Z,1001.74
2022-11-30T10:17:43.927Z,1001.69
2022-11-30T10:18:43.917Z,1001.74
2022-11-30T10:19:43.797Z,1001.73
2022-11-30T10:20:43.757Z,1001.74
2022-11-30T10:21:43.669Z,1001.69
2022-11-30T10:22:43.644Z,1001.68
2022-11-30T10:23:43.514Z,1001.65
2022-11-30T10:24:43.484Z,1001.63
2022-11-30T10:25:43.412Z,1001.66
2022-11-30T10:26:43.414Z,1001.65
2022-11-30T10:27:43.268Z,1001.66
2022-11-30T10:28:47.956Z,1001.66
2022-11-30T10:29:43.138Z,1001.70
2022-11-30T10:30:43.116Z,1001.67
2022-11-30T10:31:43.055Z,1001.67
2022-11-30T10:32:42.990Z,1001.67
2022-11-30T10:33:42.899Z,1001.65
2022-11-30T10:34:44.682Z,1001.65
2022-11-30T10:35:42.803Z,1001.61
2022-11-30T10:36:42.740Z,1001.61
2022-11-30T10:37:42.681Z,1001.58
2022-11-30T10:38:42.582Z,1001.59
2022-11-30T10:39:42.518Z,1001.54
2022-11-30T10:40:42.447Z,1001.58
2022-11-30T10:41:42.387Z,1001.52
2022-11-30T10:42:42.317Z,1001.52
2022-11-30T10:43:42.265Z,1001.56
2022-11-30T10:44:42.224Z,1001.56
2022-11-30T10:45:42.141Z,1001.60
2022-11-30T10:46:42.254Z,1001.54
2022-11-30T10:47:42.006Z,1001.56
2022-11-30T10:48:41.969Z,1001.59
2022-11-30T10:49:41.868Z,1001.56
2022-11-30T10:50:41.807Z,1001.57
2022-11-30T10:51:41.756Z,1001.54
2022-11-30T10:52:42.040Z,1001.54
2022-11-30T10:53:41.837Z,1001.50
2022-11-30T10:54:41.556Z,1001.50
2022-11-30T10:55:41.492Z,1001.55
2022-11-30T10:56:41.451Z,1001.53
2022-11-30T10:57:41.366Z,1001.55
2022-11-30T10:58:41.319Z,1001.53
2022-11-30T10:59:41.245Z,1001.53
2022-11-30T11:00:41.191Z,1001.53
2022-11-30T11:01:41.171Z,1001.53
2022-11-30T11:02:41.115Z,1001.57
2022-11-30T11:03:40.996Z,1001.57
2022-11-30T11:04:40.906Z,1001.57
2022-11-30T11:05:40.891Z,1001.58
2022-11-30T11:06:40.836Z,1001.54
2022-11-30T11:07:40.756Z,1001.59
2022-11-30T11:08:40.641Z,1001.61
2022-11-30T11:09:40.691Z,1001.58
2022-11-30T11:10:40.555Z,1001.59
2022-11-30T11:11:40.472Z,1001.61
2022-11-30T11:12:40.383Z,1001.60
2022-11-30T11:13:40.315Z,1001.60
2022-11-30T11:14:40.272Z,1001.59
2022-11-30T11:15:40.264Z,1001.59
2022-11-30T11:16:40.184Z,1001.64
2022-11-30T11:17:40.083Z,1001.64
2022-11-30T11:18:40.021Z,1001.61
2022-11-30T11:19:39.997Z,1001.64
2022-11-30T11:20:39.937Z,1001.64
2022-11-30T11:21:39.837Z,1001.64
2022-11-30T11:22:39.820Z,1001.62
2022-11-30T11:23:39.710Z,1001.62
2022-11-30T11:24:39.644Z,1001.62
2022-11-30T11:25:39.543Z,1001.65
2022-11-30T11:26:39.507Z,1001.68
2022-11-30T11:27:44.595Z,1001.67
2022-11-30T11:28:39.395Z,1001.62
2022-11-30T11:29:39.323Z,1001.64
2022-11-30T11:30:39.442Z,1001.64
2022-11-30T11:31:39.205Z,1001.69
2022-11-30T11:32:39.125Z,1001.64
2022-11-30T11:33:39.065Z,1001.65
2022-11-30T11:34:39.038Z,1001.65
2022-11-30T11:35:38.965Z,1001.64
2022-11-30T11:36:38.869Z,1001.66
2022-11-30T11:37:38.774Z,1001.65
2022-11-30T11:38:38.754Z,1001.66
2022-11-30T11:39:38.682Z,1001.71
2022-11-30T11:40:38.938Z,1001.68
2022-11-30T11:41:38.555Z,1001.67
2022-11-30T11:42:38.518Z,1001.68
2022-11-30T11:43:38.453Z,1001.65
2022-11-30T11:44:38.356Z,1001.66
2022-11-30T11:45:38.319Z,1001.66
2022-11-30T11:46:39.569Z,1001.69
2022-11-30T11:47:38.137Z,1001.67
2022-11-30T11:48:38.106Z,1001.70
2022-11-30T11:49:38.012Z,1001.69
2022-11-30T11:51:05.648Z,1001.66
2022-11-30T11:51:37.937Z,1001.67
2022-11-30T11:52:37.899Z,1001.68
2022-11-30T11:53:43.872Z,1001.67
2022-11-30T11:54:37.748Z,1001.68
2022-11-30T11:55:37.685Z,1001.68
2022-11-30T11:56:37.586Z,1001.65
2022-11-30T11:57:37.530Z,1001.68
2022-11-30T11:58:37.470Z,1001.65
2022-11-30T11:59:37.398Z,1001.65
2022-11-30T12:00:37.326Z,1001.69
2022-11-30T12:01:40.414Z,1001.70
2022-11-30T12:02:37.236Z,1001.70
2022-11-30T12:03:37.114Z,1001.72
2022-11-30T12:04:37.149Z,1001.70
2022-11-30T12:05:37.052Z,1001.71
2022-11-30T12:06:37.273Z,1001.76
2022-11-30T12:07:39.155Z,1001.74
2022-11-30T12:08:36.799Z,1001.76
2022-11-30T12:09:36.756Z,1001.76
2022-11-30T12:10:51.780Z,1001.77
2022-11-30T12:11:36.673Z,1001.76
2022-11-30T12:12:39.941Z,1001.77
2022-11-30T12:13:36.487Z,1001.78
2022-11-30T12:14:36.469Z,1001.79
2022-11-30T12:15:36.476Z,1001.79
2022-11-30T12:16:36.415Z,1001.79
2022-11-30T12:17:36.297Z,1001.80
2022-11-30T12:18:36.208Z,1001.83
2022-11-30T12:19:36.143Z,1001.86
2022-11-30T12:20:36.053Z,1001.85
2022-11-30T12:21:35.985Z,1001.87
2022-11-30T12:23:47.520Z,1001.86
2022-11-30T12:24:46.079Z,1001.92
2022-11-30T12:25:45.973Z,1001.89
2022-11-30T12:26:45.886Z,1001.90
2022-11-30T12:27:50.473Z,1001.93
2022-11-30T12:28:45.785Z,1001.87
2022-11-30T12:29:46.151Z,1001.91
2022-11-30T12:30:45.667Z,1001.87
2022-11-30T12:31:45.692Z,1001.89